Historyczne dane pomiarowe

Dodano dane terminowe – wersja testowa.

Dane z okresu 1951-2019

Wersja bazy: 1.34 [2019-03-16, lista zmian], aktualizacja planowana na 2019-04-15

Dane meteo z obszaru Polski uzyskane na podstawie danych udostępnionych przez Instytut Meteorologii i Gospodarki Wodnej – Państwowy Instytut Badawczy.

 

Wybierz Datę:    

       

TemperaturaWilgotnośćWiatrCiśnienieOpadyŚniegCzas trwania zjawisk
 Stacja t tx tn tng RH VA  wxwx mslp ppp RRR   cm mm wxwxwxwxwxwxwx
1999-08-14 13.1 19.4 7.0- 65.3- 3.0 0.7---- 0.0------------
1999-08-13 14.2 18.8 11.0- 82.3- 5.7 2.3---- 0.0------------
1999-08-12 15.5 18.8 14.0- 87.5- 8.0 2.3---- 0.0------------
1999-08-11 18.1 23.3 15.4- 85.5- 5.0 0.0---- 9.7------------
1999-08-10 21.4 29.5 16.7- 81.8- 6.3 1.7---- 13.2------------
1999-08-09 20.0 30.8 12.8- 76.8- 3.7 1.7---- 0.6------------
1999-08-08 20.2 27.7 14.9- 80.8- 4.7 1.0---- 0.0------------
1999-08-07 19.7 27.8 13.0- 84.3- 6.0 1.0---- 1.5------------
1999-08-06 19.2 26.3 14.0- 84.8- 6.3 1.3---- 5.7------------
1999-08-05 16.3 25.4 8.5- 77.5- 4.7 0.7---- 0.0------------
1999-08-04 14.9 22.3 8.5- 82.3- 3.7 0.7---- 0.0------------
1999-08-03 15.4 20.3 11.8- 79.5- 6.7 1.3---- 0.0------------
1999-08-02 13.9 18.6 10.5- 89.5- 8.0 0.0---- 1.9------------
1999-08-01 15.5 19.9 13.0- 92.5- 8.0 1.3---- 1.2------------
1999-07-31 15.9 22.8 11.0- 76.0- 7.3 0.0---- 0.8------------
1999-07-30 15.5 21.3 12.2- 86.0- 4.3 1.3---- 0.5------------
1999-07-29 16.9 21.5 12.8- 77.5- 5.3 1.3---- 0.0------------
1999-07-28 18.9 23.1 15.9- 76.3- 6.0 1.3---- 0.0------------
1999-07-27 17.9 21.0 14.2- 90.5- 8.0 0.0---- 0.2------------
1999-07-26 18.4 24.6 13.5- 87.0- 6.0 1.3---- 0.0------------
1999-07-25 16.6 23.0 10.4- 81.0- 5.7 2.0---- 0.0------------
1999-07-24 15.4 19.9 11.5- 84.0- 8.0 1.0---- 0.0------------
1999-07-23 14.8 18.5 12.7- 92.8- 8.0 1.3---- 6.5------------
1999-07-22 18.6 24.0 13.4- 78.0- 6.3 1.0---- 19.5------------
1999-07-21 20.2 28.3 12.5- 74.8- 4.7 1.0---- 0.0------------
1999-07-20 19.0 28.3 10.5- 74.8- 1.7 0.0---- 0.0------------
1999-07-19 17.9 26.3 9.0- 77.3- 1.7 1.0---- 0.0------------
1999-07-18 15.8 24.3 8.5- 78.0- 3.3 2.3---- 0.0------------
1999-07-17 16.1 22.3 10.2- 79.0- 5.3 1.7---- 0.0------------
1999-07-16 14.5 20.4 8.4- 78.3- 6.7 0.7---- 1.4------------
1999-07-15 16.9 20.5 14.5- 79.0- 6.7 3.7---- 0.0------------
1999-07-14 19.4 23.8 15.1- 81.5- 7.0 0.7---- 7.0------------
1999-07-13 19.3 23.8 14.6- 83.8- 7.0 1.7---- 0.6------------
1999-07-12 18.4 22.6 14.5- 86.8- 6.3 1.3---- 7.4------------
1999-07-11 18.8 20.5 17.1- 92.0- 7.7 2.0---- 24.4------------
1999-07-10 18.8 20.5 17.4- 84.8- 8.0 2.0---- 2.0------------
1999-07-09 19.1 22.8 15.7- 88.5- 8.0 0.7---- 0.3------------
1999-07-08 20.2 24.3 17.5- 87.3- 7.0 2.3---- 30.8------------
1999-07-07 21.3 27.4 16.3- 82.3- 5.0 0.7---- 28.4------------
1999-07-06 26.0 31.3 20.3- 57.8- 1.7 4.7---- 0.0------------
1999-07-05 22.4 30.3 13.5- 68.0- 0.3 3.0---- 0.0------------
1999-07-04 21.0 31.0 11.5- 75.5- 0.3 0.7---- 0.0------------
1999-07-03 19.0 23.5 14.0- 74.5- 4.7 0.0---- 0.0------------
1999-07-02 19.2 23.8 16.3- 81.5- 6.0 1.3---- 5.2------------
1999-07-01 18.3 24.8 12.0- 76.3- 5.0 1.0---- 0.0------------
1999-06-30 19.2 24.0 13.8- 76.5- 5.0 1.0---- 0.0------------
1999-06-29 18.6 23.9 13.0- 75.0- 6.0 1.7---- 0.0------------
1999-06-28 17.6 26.6 9.6- 75.8- 4.7 0.7---- 0.0------------
1999-06-27 18.1 27.1 8.5- 69.0- 0.7 1.3---- 0.0------------
1999-06-26 15.0 24.4 5.0- 74.8- 1.3 1.0---- 0.0------------
1999-06-25 12.1 18.6 4.5- 82.3- 3.0 0.0---- 0.0------------
1999-06-24 10.3 12.6 8.0- 89.8- 8.0 1.3---- 0.1------------
1999-06-23 8.7 9.8 7.6- 92.8- 8.0 3.3---- 7.4------------
1999-06-22 11.3 16.8 8.5- 91.5- 8.0 4.0---- 18.1------------
1999-06-21 18.2 23.4 15.9- 84.8- 7.3 0.0---- 14.7------------
1999-06-20 17.9 23.4 13.5- 82.3- 7.0 2.0---- 7.6------------
1999-06-19 17.4 22.0 14.5- 80.8- 6.7 1.3---- 0.0------------
1999-06-18 17.5 20.4 15.3- 93.0- 7.3 0.0---- 2.3------------
1999-06-17 17.8 22.5 15.0- 85.8- 7.0 1.0---- 2.8------------
1999-06-16 17.9 21.3 15.3- 85.8- 7.3 2.0---- 10.8------------
568.3 ms

 

Źródłem pochodzenia danych jest Instytut Meteorologii i Gospodarki Wodnej – Państwowy Instytut Badawczy. Dane Instytutu Meteorologii i Gospodarki Wodnej – Państwowego Instytutu Badawczego zostały przetworzone.

Dane źródłowe można odnaleźć na stronie https://dane.imgw.pl